Frederike Selmer — V7QY8 — position and weather

sailwx.info

Track history (hours):
 
Tides and Currents Weather Stations Pressure Air Temp Water Temp Dewpoint Dewpoint Depression Visibility Wind Speed Wind Dir Waves Ship Positions

Frederike Selmer

Last reported at 2015-Jul-06 04:26 UTC. Time now 2015-Jul-29 02:38 UTC.
Position S 28°49' E 032°03'.
Warning: this ship's position is 22 days out of date.

Length 188 m; draft 6.3 m.

Type: Cargo ship. MMSI: 538090377.

Date/timePositionNaut miles runAvg speedWind from/ knotsBaromVisibWave heightAir tempDewpointWater temp
2015-Jul-06 04:26S 28°49' E 032°03'0 0.0
2015-Jul-06 00:32S 28°49' E 032°03'0 0.0
2015-Jul-05 23:17S 28°49' E 032°03'0 0.0
2015-Jul-05 22:32S 28°49' E 032°03'0 0.0
2015-Jul-05 21:20S 28°49' E 032°03'0 0.0
2015-Jul-05 19:23S 28°49' E 032°03'0 0.0
2015-Jul-05 18:32S 28°49' E 032°03'0 0.0
2015-Jul-05 17:20S 28°49' E 032°03'0 0.0
2015-Jul-05 16:29S 28°49' E 032°03'0 0.0
2015-Jul-05 15:32S 28°49' E 032°03'0 0.0
2015-Jul-05 14:32S 28°49' E 032°03'0 0.0
2015-Jul-05 13:32S 28°49' E 032°03'0 0.0
2015-Jul-05 12:32S 28°49' E 032°03'0 0.0
2015-Jul-05 11:32S 28°49' E 032°03'0 0.0
2015-Jul-05 10:32S 28°49' E 032°03'1 0.9
2015-Jul-05 09:32S 28°48' E 032°04'7 7.4
2015-Jul-05 08:33S 28°54' E 032°08'2 1.9
2015-Jul-05 07:32S 28°56' E 032°09'0 0.0
2015-Jul-05 06:32S 28°56' E 032°09'0 0.0
2015-Jul-05 05:32S 28°56' E 032°09'0 0.0
2015-Jul-05 04:32S 28°56' E 032°09'0 0.0
2015-Jul-05 03:32S 28°56' E 032°09'0 0.0
2015-Jul-05 02:32S 28°56' E 032°09'0 0.0
2015-Jul-05 01:32S 28°56' E 032°09'0 0.0
2015-Jul-05 00:32S 28°56' E 032°09'0 0.0
2015-Jul-04 23:32S 28°56' E 032°09'3 3.3
2015-Jul-04 22:32S 28°53' E 032°12'8 8.0
2015-Jul-04 21:34S 28°47' E 032°17'8 7.8
2015-Jul-04 20:34S 28°43' E 032°25'9 9.1
2015-Jul-04 19:34S 28°39' E 032°34'10 9.7
2015-Jul-04 18:34S 28°34' E 032°43'  
Track history (hours):
 
Tides and Currents Weather Stations Pressure Air Temp Water Temp Dewpoint Dewpoint Depression Visibility Wind Speed Wind Dir Waves Ship Positions

Frederike Selmer

Last reported at 2015-Jul-06 04:26 UTC. Time now 2015-Jul-29 02:38 UTC.
Position S 28°49' E 032°03'.
Warning: this ship's position is 22 days out of date.

Length 188 m; draft 6.3 m.

Type: Cargo ship. MMSI: 538090377.

Date/timePositionNaut miles runAvg speedWind from/ knotsBaromVisibWave heightAir tempDewpointWater temp
2015-Jul-06 04:26S 28°49' E 032°03'0 0.0
2015-Jul-06 00:32S 28°49' E 032°03'0 0.0
2015-Jul-05 23:17S 28°49' E 032°03'0 0.0
2015-Jul-05 22:32S 28°49' E 032°03'0 0.0
2015-Jul-05 21:20S 28°49' E 032°03'0 0.0
2015-Jul-05 19:23S 28°49' E 032°03'0 0.0
2015-Jul-05 18:32S 28°49' E 032°03'0 0.0
2015-Jul-05 17:20S 28°49' E 032°03'0 0.0
2015-Jul-05 16:29S 28°49' E 032°03'0 0.0
2015-Jul-05 15:32S 28°49' E 032°03'0 0.0
2015-Jul-05 14:32S 28°49' E 032°03'0 0.0
2015-Jul-05 13:32S 28°49' E 032°03'0 0.0
2015-Jul-05 12:32S 28°49' E 032°03'0 0.0
2015-Jul-05 11:32S 28°49' E 032°03'0 0.0
2015-Jul-05 10:32S 28°49' E 032°03'1 0.9
2015-Jul-05 09:32S 28°48' E 032°04'7 7.4
2015-Jul-05 08:33S 28°54' E 032°08'2 1.9
2015-Jul-05 07:32S 28°56' E 032°09'0 0.0
2015-Jul-05 06:32S 28°56' E 032°09'0 0.0
2015-Jul-05 05:32S 28°56' E 032°09'0 0.0
2015-Jul-05 04:32S 28°56' E 032°09'0 0.0
2015-Jul-05 03:32S 28°56' E 032°09'0 0.0
2015-Jul-05 02:32S 28°56' E 032°09'0 0.0
2015-Jul-05 01:32S 28°56' E 032°09'0 0.0
2015-Jul-05 00:32S 28°56' E 032°09'0 0.0
2015-Jul-04 23:32S 28°56' E 032°09'3 3.3
2015-Jul-04 22:32S 28°53' E 032°12'8 8.0
2015-Jul-04 21:34S 28°47' E 032°17'8 7.8
2015-Jul-04 20:34S 28°43' E 032°25'9 9.1
2015-Jul-04 19:34S 28°39' E 032°34'10 9.7
2015-Jul-04 18:34S 28°34' E 032°43'  

Dump ship's entire track history